createdAt,value
2023-05-17T00:01:50.056Z,99.78
2023-05-17T00:04:17.155Z,99.52
2023-05-17T00:06:44.588Z,99.47
2023-05-17T00:09:11.992Z,98.67
2023-05-17T00:11:39.035Z,99.71
2023-05-17T00:14:06.240Z,100.00
2023-05-17T00:16:33.271Z,100.00
2023-05-17T00:19:00.305Z,100.00
2023-05-17T00:21:27.518Z,100.00
2023-05-17T00:23:54.413Z,100.00
2023-05-17T00:26:21.291Z,100.00
2023-05-17T00:28:48.207Z,100.00
2023-05-17T00:31:15.088Z,100.00
2023-05-17T00:33:41.989Z,100.00
2023-05-17T00:36:09.106Z,100.00
2023-05-17T00:38:36.195Z,100.00
2023-05-17T00:41:03.068Z,100.00
2023-05-17T00:43:30.004Z,100.00
2023-05-17T00:45:56.914Z,100.00
2023-05-17T00:48:26.323Z,100.00
2023-05-17T00:50:54.143Z,100.00
2023-05-17T00:53:21.271Z,100.00
2023-05-17T00:55:48.738Z,100.00
2023-05-17T00:58:16.682Z,100.00
2023-05-17T01:00:43.946Z,100.00
2023-05-17T01:03:11.018Z,100.00
2023-05-17T01:05:39.024Z,100.00
2023-05-17T01:08:05.911Z,100.00
2023-05-17T01:10:58.139Z,100.00
2023-05-17T01:13:35.365Z,100.00
2023-05-17T01:16:26.199Z,100.00
2023-05-17T01:19:05.785Z,100.00
2023-05-17T01:22:07.300Z,100.00
2023-05-17T01:24:58.142Z,99.08
2023-05-17T01:27:27.151Z,98.27
2023-05-17T01:29:56.983Z,97.06
2023-05-17T01:32:26.246Z,96.27
2023-05-17T01:34:53.312Z,96.04
2023-05-17T01:37:20.199Z,96.18
2023-05-17T01:39:47.251Z,97.33
2023-05-17T01:42:24.690Z,97.75
2023-05-17T01:45:07.105Z,97.13
2023-05-17T01:47:45.513Z,98.13
2023-05-17T01:50:15.973Z,97.45
2023-05-17T01:52:56.455Z,98.20
2023-05-17T01:55:32.056Z,97.85
2023-05-17T01:58:00.731Z,98.06
2023-05-17T02:00:29.906Z,99.03
2023-05-17T02:02:56.972Z,99.68
2023-05-17T02:05:23.926Z,99.78
2023-05-17T02:07:50.803Z,99.81
2023-05-17T02:10:17.868Z,99.51
2023-05-17T02:12:44.740Z,99.73
2023-05-17T02:15:12.321Z,99.91
2023-05-17T02:17:42.216Z,99.42
2023-05-17T02:20:10.839Z,99.45
2023-05-17T02:22:37.855Z,99.45
2023-05-17T02:25:05.336Z,99.80
2023-05-17T02:27:32.184Z,100.00
2023-05-17T02:29:59.136Z,100.00
2023-05-17T02:32:26.487Z,100.00
2023-05-17T02:34:53.445Z,100.00
2023-05-17T02:37:20.296Z,100.00
2023-05-17T02:39:47.398Z,100.00
2023-05-17T02:42:14.514Z,100.00
2023-05-17T02:44:41.423Z,100.00
2023-05-17T02:47:08.444Z,100.00
2023-05-17T02:49:35.476Z,100.00
2023-05-17T02:52:02.611Z,100.00
2023-05-17T02:54:29.701Z,100.00
2023-05-17T02:56:56.550Z,100.00
2023-05-17T02:59:23.422Z,100.00
2023-05-17T03:01:50.579Z,100.00
2023-05-17T03:04:19.215Z,100.00
2023-05-17T03:06:46.351Z,100.00
2023-05-17T03:09:13.989Z,100.00
2023-05-17T03:11:40.887Z,100.00
2023-05-17T03:14:07.907Z,100.00
2023-05-17T03:16:35.362Z,100.00
2023-05-17T03:19:02.523Z,100.00
2023-05-17T03:21:29.687Z,100.00
2023-05-17T03:23:56.622Z,100.00
2023-05-17T03:26:24.327Z,100.00
2023-05-17T03:28:51.514Z,100.00
2023-05-17T03:31:19.111Z,100.00
2023-05-17T03:33:46.318Z,99.94
2023-05-17T03:36:13.346Z,100.00
2023-05-17T03:38:40.211Z,100.00
2023-05-17T03:41:07.241Z,100.00
2023-05-17T03:43:34.256Z,99.99
2023-05-17T03:46:01.225Z,99.93
2023-05-17T03:48:28.115Z,100.00
2023-05-17T03:50:55.181Z,100.00
2023-05-17T03:53:22.323Z,100.00
2023-05-17T03:55:49.213Z,100.00
2023-05-17T03:58:16.063Z,100.00
2023-05-17T04:00:42.954Z,100.00
2023-05-17T04:03:09.806Z,100.00
2023-05-17T04:05:36.665Z,100.00
2023-05-17T04:08:03.560Z,100.00
2023-05-17T04:10:31.048Z,100.00
2023-05-17T04:12:57.956Z,100.00
2023-05-17T04:15:24.834Z,100.00
2023-05-17T04:17:51.885Z,100.00
2023-05-17T04:20:18.885Z,100.00
2023-05-17T04:22:45.855Z,100.00
2023-05-17T04:25:12.717Z,100.00
2023-05-17T04:27:39.579Z,100.00
2023-05-17T04:30:07.336Z,100.00
2023-05-17T04:32:36.978Z,100.00
2023-05-17T04:35:04.618Z,100.00
2023-05-17T04:37:31.577Z,100.00
2023-05-17T04:39:59.381Z,100.00
2023-05-17T04:42:26.526Z,100.00
2023-05-17T04:44:53.679Z,100.00
2023-05-17T04:47:20.621Z,100.00
2023-05-17T04:49:47.555Z,100.00
2023-05-17T04:52:14.502Z,100.00
2023-05-17T04:54:41.507Z,100.00
2023-05-17T04:57:08.425Z,100.00
2023-05-17T04:59:35.275Z,100.00
2023-05-17T05:02:02.157Z,100.00
2023-05-17T05:04:29.105Z,100.00
2023-05-17T05:06:56.121Z,100.00
2023-05-17T05:09:22.989Z,100.00
2023-05-17T05:11:49.846Z,100.00
2023-05-17T05:14:16.681Z,100.00
2023-05-17T05:16:43.614Z,100.00
2023-05-17T05:19:10.630Z,100.00
2023-05-17T05:21:37.750Z,100.00
2023-05-17T05:24:04.840Z,100.00
2023-05-17T05:26:32.273Z,100.00
2023-05-17T05:28:59.150Z,99.40
2023-05-17T05:31:26.093Z,97.84
2023-05-17T05:33:53.022Z,96.39
2023-05-17T05:36:19.891Z,94.85
2023-05-17T05:38:46.833Z,94.66
2023-05-17T05:41:13.803Z,95.13
2023-05-17T05:43:40.666Z,94.78
2023-05-17T05:46:08.255Z,94.07
2023-05-17T05:48:35.236Z,93.85
2023-05-17T05:51:02.238Z,94.38
2023-05-17T05:53:29.098Z,93.68
2023-05-17T05:55:56.179Z,93.74
2023-05-17T05:58:23.066Z,91.06
2023-05-17T06:00:50.033Z,91.44
2023-05-17T06:03:16.929Z,89.98
2023-05-17T06:05:43.996Z,88.60
2023-05-17T06:08:10.933Z,87.32
2023-05-17T06:13:05.602Z,86.45
2023-05-17T06:15:32.664Z,84.91
2023-05-17T06:17:59.721Z,84.48
2023-05-17T06:20:26.710Z,83.78
2023-05-17T06:22:53.696Z,84.32
2023-05-17T06:25:20.963Z,81.78
2023-05-17T06:27:47.849Z,80.48
2023-05-17T06:30:14.832Z,79.45
2023-05-17T06:32:42.151Z,79.20
2023-05-17T06:35:09.877Z,77.69
2023-05-17T06:37:37.078Z,78.12
2023-05-17T06:40:14.961Z,77.92
2023-05-17T06:42:42.902Z,77.36
2023-05-17T06:45:10.754Z,75.78
2023-05-17T06:47:37.805Z,75.51
2023-05-17T06:50:05.138Z,75.75
2023-05-17T06:52:32.082Z,74.08
2023-05-17T06:54:59.036Z,74.38
2023-05-17T06:57:25.890Z,70.66
2023-05-17T06:59:52.755Z,71.89
2023-05-17T07:02:20.214Z,69.60
2023-05-17T07:04:47.167Z,70.21
2023-05-17T07:07:14.170Z,69.74
2023-05-17T07:09:41.583Z,69.54
2023-05-17T07:12:08.516Z,68.03
2023-05-17T07:14:35.683Z,67.12
2023-05-17T07:17:02.522Z,68.62
2023-05-17T07:19:29.560Z,66.70
2023-05-17T07:21:56.592Z,65.36
2023-05-17T07:24:25.849Z,64.61
2023-05-17T07:26:52.941Z,63.49
2023-05-17T07:29:19.870Z,63.62
2023-05-17T07:31:46.864Z,63.44
2023-05-17T07:34:14.366Z,62.86
2023-05-17T07:36:41.444Z,63.31
2023-05-17T07:39:09.428Z,61.81
2023-05-17T07:41:37.184Z,62.68
2023-05-17T07:44:04.141Z,60.65
2023-05-17T07:46:31.112Z,61.47
2023-05-17T07:48:58.913Z,61.75
2023-05-17T07:51:26.518Z,61.33
2023-05-17T07:53:53.496Z,63.49
2023-05-17T07:56:22.687Z,58.81
2023-05-17T07:58:49.582Z,60.19
2023-05-17T08:01:19.165Z,58.52
2023-05-17T08:03:48.468Z,59.75
2023-05-17T08:06:16.852Z,58.58
2023-05-17T08:08:44.779Z,59.17
2023-05-17T08:11:12.963Z,59.44
2023-05-17T08:13:39.907Z,58.89
2023-05-17T08:16:13.557Z,58.18
2023-05-17T08:18:43.200Z,59.11
2023-05-17T08:21:11.561Z,57.84
2023-05-17T08:23:38.556Z,59.13
2023-05-17T08:26:05.461Z,59.26
2023-05-17T08:28:32.476Z,55.43
2023-05-17T08:30:59.522Z,57.97
2023-05-17T08:33:26.861Z,56.14
2023-05-17T08:35:55.578Z,56.28
2023-05-17T08:38:22.687Z,57.36
2023-05-17T08:40:55.274Z,57.93
2023-05-17T08:43:25.204Z,58.19
2023-05-17T08:45:54.622Z,57.43
2023-05-17T08:48:22.094Z,55.18
2023-05-17T08:50:51.429Z,56.65
2023-05-17T08:53:18.544Z,56.14
2023-05-17T08:55:50.777Z,56.13
2023-05-17T08:58:26.439Z,58.56
2023-05-17T09:00:54.605Z,56.13
2023-05-17T09:03:22.938Z,57.38
2023-05-17T09:05:57.355Z,56.62
2023-05-17T09:08:24.582Z,57.22
2023-05-17T09:10:51.603Z,57.15
2023-05-17T09:13:18.461Z,56.09
2023-05-17T09:15:48.462Z,57.27
2023-05-17T09:18:17.846Z,57.30
2023-05-17T09:20:51.907Z,55.41
2023-05-17T09:23:21.602Z,57.47
2023-05-17T09:25:50.063Z,57.08
2023-05-17T09:28:22.677Z,55.75
2023-05-17T09:30:50.144Z,56.82
2023-05-17T09:33:21.845Z,54.61
2023-05-17T09:35:48.795Z,56.10
2023-05-17T09:38:16.307Z,55.61
2023-05-17T09:40:46.867Z,54.86
2023-05-17T09:43:14.847Z,55.26
2023-05-17T09:45:41.981Z,54.54
2023-05-17T09:48:18.275Z,55.23
2023-05-17T09:50:50.254Z,54.25
2023-05-17T09:53:30.628Z,53.92
2023-05-17T09:56:00.782Z,54.07
2023-05-17T09:58:29.264Z,53.52
2023-05-17T10:01:02.056Z,54.92
2023-05-17T10:03:33.677Z,55.15
2023-05-17T10:06:06.822Z,54.30
2023-05-17T10:08:34.091Z,52.30
2023-05-17T10:11:09.079Z,51.92
2023-05-17T10:13:52.939Z,50.53
2023-05-17T10:16:24.587Z,51.42
2023-05-17T10:18:51.863Z,52.43
2023-05-17T10:21:19.291Z,51.29
2023-05-17T10:23:47.710Z,50.08
2023-05-17T10:26:16.365Z,47.09
2023-05-17T10:28:44.791Z,47.35
2023-05-17T10:31:12.909Z,49.61
2023-05-17T10:33:40.494Z,44.32
2023-05-17T10:36:08.509Z,45.11
2023-05-17T10:38:42.582Z,44.89
2023-05-17T10:41:16.094Z,45.08
2023-05-17T10:43:43.962Z,46.25
2023-05-17T10:46:22.674Z,44.29
2023-05-17T10:48:52.802Z,45.15
2023-05-17T10:51:26.119Z,44.08
2023-05-17T10:54:08.848Z,44.15
2023-05-17T10:56:40.444Z,46.87
2023-05-17T10:59:34.203Z,47.66
2023-05-17T11:02:04.640Z,47.83
2023-05-17T11:04:45.768Z,48.12
2023-05-17T11:07:28.278Z,47.13
2023-05-17T11:10:11.196Z,48.05
2023-05-17T11:12:48.243Z,46.89
2023-05-17T11:15:17.128Z,46.65
2023-05-17T11:17:44.368Z,46.30
2023-05-17T11:20:32.701Z,46.31
2023-05-17T11:23:02.576Z,46.14
2023-05-17T11:25:36.398Z,46.19
2023-05-17T11:28:19.104Z,45.18
2023-05-17T11:30:51.767Z,45.78
2023-05-17T11:33:33.265Z,46.50
2023-05-17T11:36:07.616Z,47.58
2023-05-17T11:38:37.711Z,45.31
2023-05-17T11:42:17.335Z,45.82
2023-05-17T11:44:45.046Z,46.07
2023-05-17T11:48:20.856Z,46.18
2023-05-17T11:50:49.949Z,46.05
2023-05-17T11:53:17.497Z,46.71
2023-05-17T11:55:52.848Z,47.83
2023-05-17T11:58:25.026Z,45.28
2023-05-17T12:00:57.940Z,45.49
2023-05-17T12:03:29.853Z,45.62
2023-05-17T12:06:15.535Z,46.66
2023-05-17T12:08:46.852Z,44.24
2023-05-17T12:11:18.722Z,45.62
2023-05-17T12:13:49.189Z,42.99
2023-05-17T12:16:18.388Z,43.46
2023-05-17T12:18:51.713Z,43.29
2023-05-17T12:21:20.884Z,43.80
2023-05-17T12:23:52.558Z,44.22
2023-05-17T12:26:24.256Z,43.71
2023-05-17T12:29:03.119Z,43.42
2023-05-17T12:31:39.863Z,42.68
2023-05-17T12:34:09.671Z,44.37
2023-05-17T12:36:41.940Z,43.58
2023-05-17T12:39:14.198Z,43.79
2023-05-17T12:41:41.974Z,42.33
2023-05-17T12:46:39.736Z,42.62
2023-05-17T12:49:09.367Z,44.04
2023-05-17T12:51:47.048Z,43.77
2023-05-17T12:54:25.586Z,44.62
2023-05-17T12:56:52.841Z,44.20
2023-05-17T12:59:25.991Z,44.91
2023-05-17T13:01:58.271Z,44.30
2023-05-17T13:04:36.989Z,42.46
2023-05-17T13:07:05.777Z,44.89
2023-05-17T13:11:20.916Z,45.49
2023-05-17T13:14:14.598Z,46.01
2023-05-17T13:16:45.842Z,47.13
2023-05-17T13:19:16.745Z,46.76
2023-05-17T13:21:49.073Z,46.76
2023-05-17T13:24:16.079Z,46.45
2023-05-17T13:26:46.413Z,46.89
2023-05-17T13:29:13.457Z,47.49
2023-05-17T13:31:43.332Z,48.60
2023-05-17T13:34:10.445Z,47.47
2023-05-17T13:36:37.566Z,47.02
2023-05-17T13:39:04.928Z,47.27
2023-05-17T13:41:32.177Z,46.65
2023-05-17T13:43:59.123Z,47.01
2023-05-17T13:46:26.015Z,45.75
2023-05-17T13:48:53.565Z,46.08
2023-05-17T13:51:20.725Z,45.72
2023-05-17T13:53:47.622Z,46.36
2023-05-17T13:56:14.532Z,46.14
2023-05-17T13:58:41.699Z,46.70
2023-05-17T14:01:08.608Z,47.06
2023-05-17T14:03:36.468Z,45.47
2023-05-17T14:06:05.006Z,45.85
2023-05-17T14:08:32.087Z,46.36
2023-05-17T14:10:58.975Z,46.78
2023-05-17T14:13:27.296Z,45.93
2023-05-17T14:15:54.300Z,46.39
2023-05-17T14:18:21.402Z,45.75
2023-05-17T14:20:56.038Z,47.14
2023-05-17T14:23:42.761Z,46.23
2023-05-17T14:26:10.380Z,46.48
2023-05-17T14:34:57.674Z,46.44
2023-05-17T14:37:57.479Z,46.84
2023-05-17T14:40:44.943Z,47.72
2023-05-17T14:43:42.778Z,48.59
2023-05-17T14:50:29.706Z,48.82
2023-05-17T14:54:51.165Z,49.02
2023-05-17T15:00:03.957Z,49.08
2023-05-17T15:02:29.477Z,49.14
2023-05-17T15:05:01.135Z,48.92
2023-05-17T15:10:36.951Z,48.25
2023-05-17T15:13:07.622Z,48.74
2023-05-17T15:15:34.821Z,48.48
2023-05-17T15:18:09.754Z,48.98
2023-05-17T15:20:55.344Z,48.41
2023-05-17T15:23:22.423Z,49.35
2023-05-17T15:25:55.040Z,48.70
2023-05-17T15:28:30.158Z,48.38
2023-05-17T15:31:06.666Z,49.67
2023-05-17T15:33:33.678Z,48.74
2023-05-17T15:36:03.702Z,47.17
2023-05-17T15:39:01.317Z,47.76
2023-05-17T15:41:32.908Z,47.82
2023-05-17T15:43:59.926Z,48.88
2023-05-17T15:46:27.603Z,48.33
2023-05-17T15:48:56.721Z,49.21
2023-05-17T15:51:23.815Z,49.86
2023-05-17T15:53:54.517Z,49.99
2023-05-17T15:56:21.551Z,49.91
2023-05-17T15:58:51.883Z,50.25
2023-05-17T16:01:21.742Z,51.35
2023-05-17T16:03:59.391Z,51.80
2023-05-17T16:06:40.689Z,51.67
2023-05-17T16:09:30.234Z,51.33
2023-05-17T16:11:57.753Z,52.02
2023-05-17T16:14:28.474Z,51.70
2023-05-17T16:17:03.809Z,52.96
2023-05-17T16:19:36.745Z,53.02
2023-05-17T16:22:04.338Z,52.75
2023-05-17T16:24:34.048Z,53.08
2023-05-17T16:27:03.818Z,52.66
2023-05-17T16:29:33.618Z,52.84
2023-05-17T16:32:00.567Z,52.81
2023-05-17T16:34:28.636Z,53.20
2023-05-17T16:36:55.657Z,53.35
2023-05-17T16:39:23.034Z,52.80
2023-05-17T16:41:51.274Z,53.28
2023-05-17T16:44:18.149Z,53.59
2023-05-17T16:46:45.030Z,54.59
2023-05-17T16:49:12.083Z,54.84
2023-05-17T16:51:39.009Z,54.99
2023-05-17T16:54:06.120Z,55.68
2023-05-17T16:56:33.913Z,55.44
2023-05-17T16:59:00.763Z,55.32
2023-05-17T17:01:27.782Z,55.72
2023-05-17T17:03:56.862Z,54.83
2023-05-17T17:06:23.797Z,55.93
2023-05-17T17:08:50.709Z,55.24
2023-05-17T17:11:22.630Z,55.10
2023-05-17T17:13:50.231Z,54.99
2023-05-17T17:16:17.800Z,55.62
2023-05-17T17:18:44.851Z,55.94
2023-05-17T17:21:11.688Z,56.15
2023-05-17T17:23:40.156Z,56.29
2023-05-17T17:26:08.928Z,55.30
2023-05-17T17:28:35.928Z,54.86
2023-05-17T17:31:02.899Z,55.17
2023-05-17T17:33:29.907Z,55.35
2023-05-17T17:35:56.792Z,55.99
2023-05-17T17:38:23.655Z,55.68
2023-05-17T17:40:50.822Z,55.89
2023-05-17T17:43:17.715Z,55.49
2023-05-17T17:45:46.520Z,55.83
2023-05-17T17:48:13.677Z,55.94
2023-05-17T17:50:40.610Z,56.23
2023-05-17T17:53:07.540Z,55.77
2023-05-17T17:55:34.394Z,56.04
2023-05-17T17:58:01.398Z,56.52
2023-05-17T18:00:28.488Z,56.58
2023-05-17T18:02:55.899Z,56.87
2023-05-17T18:05:23.044Z,56.52
2023-05-17T18:07:49.894Z,56.79
2023-05-17T18:10:16.756Z,56.75
2023-05-17T18:12:43.636Z,56.36
2023-05-17T18:15:11.662Z,56.87
2023-05-17T18:17:39.793Z,57.77
2023-05-17T18:20:07.712Z,57.18
2023-05-17T18:22:34.857Z,57.15
2023-05-17T18:25:01.731Z,57.09
2023-05-17T18:27:28.608Z,57.91
2023-05-17T18:29:55.545Z,58.08
2023-05-17T18:32:22.473Z,58.96
2023-05-17T18:34:49.376Z,58.44
2023-05-17T18:37:16.428Z,58.63
2023-05-17T18:39:43.349Z,58.90
2023-05-17T18:42:10.291Z,59.22
2023-05-17T18:44:37.229Z,59.15
2023-05-17T18:47:04.369Z,59.92
2023-05-17T18:49:31.532Z,60.30
2023-05-17T18:51:58.408Z,60.84
2023-05-17T18:54:25.352Z,61.64
2023-05-17T18:56:52.242Z,61.14
2023-05-17T18:59:19.358Z,61.38
2023-05-17T19:01:46.212Z,61.65
2023-05-17T19:04:14.654Z,62.30
2023-05-17T19:06:42.439Z,62.26
2023-05-17T19:09:09.466Z,62.69
2023-05-17T19:11:36.987Z,63.54
2023-05-17T19:14:04.466Z,64.25
2023-05-17T19:16:31.479Z,64.26
2023-05-17T19:18:58.398Z,64.20
2023-05-17T19:21:25.359Z,64.88
2023-05-17T19:23:52.291Z,65.65
2023-05-17T19:26:19.166Z,65.77
2023-05-17T19:28:46.164Z,65.47
2023-05-17T19:31:13.167Z,66.33
2023-05-17T19:33:40.045Z,67.42
2023-05-17T19:36:07.061Z,67.29
2023-05-17T19:38:34.087Z,67.40
2023-05-17T19:41:01.764Z,68.60
2023-05-17T19:43:28.739Z,68.29
2023-05-17T19:45:55.915Z,67.15
2023-05-17T19:48:24.419Z,67.48
2023-05-17T19:50:51.678Z,70.03
2023-05-17T19:53:18.656Z,69.51
2023-05-17T19:55:45.754Z,70.83
2023-05-17T19:58:12.612Z,70.63
2023-05-17T20:00:39.475Z,69.89
2023-05-17T20:03:06.478Z,70.64
2023-05-17T20:05:33.470Z,71.03
2023-05-17T20:08:02.808Z,71.24
2023-05-17T20:10:32.811Z,72.04
2023-05-17T20:12:59.835Z,73.19
2023-05-17T20:15:26.693Z,72.97
2023-05-17T20:17:53.819Z,73.06
2023-05-17T20:20:20.816Z,72.89
2023-05-17T20:22:48.282Z,74.20
2023-05-17T20:25:15.220Z,75.09
2023-05-17T20:27:42.161Z,75.20
2023-05-17T20:30:10.653Z,75.25
2023-05-17T20:32:37.525Z,75.67
2023-05-17T20:35:04.797Z,75.44
2023-05-17T20:37:31.690Z,76.39
2023-05-17T20:40:00.229Z,76.14
2023-05-17T20:42:28.346Z,76.49
2023-05-17T20:44:55.718Z,76.27
2023-05-17T20:47:22.764Z,76.35
2023-05-17T20:49:50.509Z,77.25
2023-05-17T20:52:27.791Z,77.78
2023-05-17T20:55:06.634Z,79.27
2023-05-17T20:57:33.525Z,79.48
2023-05-17T21:00:00.392Z,79.21
2023-05-17T21:02:27.351Z,79.89
2023-05-17T21:04:54.916Z,81.19
2023-05-17T21:07:26.584Z,80.89
2023-05-17T21:09:53.455Z,81.24
2023-05-17T21:12:21.947Z,81.67
2023-05-17T21:14:59.798Z,82.71
2023-05-17T21:17:35.220Z,83.06
2023-05-17T21:20:02.253Z,83.48
2023-05-17T21:22:29.113Z,84.19
2023-05-17T21:24:56.250Z,86.06
2023-05-17T21:27:23.193Z,85.57
2023-05-17T21:29:50.033Z,85.67
2023-05-17T21:32:17.314Z,85.86
2023-05-17T21:34:45.139Z,87.41
2023-05-17T21:37:12.323Z,87.57
2023-05-17T21:39:39.187Z,89.80
2023-05-17T21:42:06.394Z,90.24
2023-05-17T21:44:33.258Z,90.40
2023-05-17T21:47:00.342Z,90.89
2023-05-17T21:49:28.668Z,91.27
2023-05-17T21:51:55.617Z,91.63
2023-05-17T21:54:24.788Z,91.90
2023-05-17T21:56:52.983Z,92.12
2023-05-17T21:59:19.916Z,92.35
2023-05-17T22:01:47.024Z,92.45
2023-05-17T22:04:13.929Z,92.29
2023-05-17T22:06:40.879Z,92.60
2023-05-17T22:09:09.600Z,93.13
2023-05-17T22:11:38.738Z,94.21
2023-05-17T22:14:08.237Z,95.72
2023-05-17T22:16:36.447Z,96.62
2023-05-17T22:19:04.017Z,95.90
2023-05-17T22:21:31.843Z,96.26
2023-05-17T22:23:59.605Z,95.69
2023-05-17T22:26:27.935Z,95.23
2023-05-17T22:28:55.858Z,95.04
2023-05-17T22:31:23.056Z,95.87
2023-05-17T22:33:50.606Z,96.17
2023-05-17T22:36:19.221Z,95.70
2023-05-17T22:38:46.836Z,95.03
2023-05-17T22:41:13.791Z,94.19
2023-05-17T22:43:40.779Z,94.27
2023-05-17T22:46:07.940Z,94.32
2023-05-17T22:48:37.510Z,94.07
2023-05-17T22:51:04.692Z,93.09
2023-05-17T22:53:31.933Z,94.39
2023-05-17T22:55:59.032Z,93.52
2023-05-17T22:58:26.048Z,93.76
2023-05-17T23:00:53.436Z,93.90
2023-05-17T23:03:21.082Z,94.44
2023-05-17T23:05:48.359Z,95.15
2023-05-17T23:08:17.961Z,95.83
2023-05-17T23:10:45.020Z,95.09
2023-05-17T23:13:12.879Z,95.36
2023-05-17T23:15:40.953Z,94.99
2023-05-17T23:18:08.208Z,94.45
2023-05-17T23:20:36.146Z,93.97
2023-05-17T23:23:03.004Z,94.27
2023-05-17T23:25:30.232Z,95.23
2023-05-17T23:28:00.197Z,96.23
2023-05-17T23:30:27.747Z,96.66
2023-05-17T23:32:55.470Z,96.35
2023-05-17T23:35:23.964Z,95.98
2023-05-17T23:37:50.808Z,95.82
2023-05-17T23:40:17.707Z,97.07
2023-05-17T23:42:44.564Z,97.33
2023-05-17T23:45:11.507Z,97.49
2023-05-17T23:47:41.007Z,97.47
2023-05-17T23:50:12.257Z,97.32
2023-05-17T23:52:39.678Z,97.84
2023-05-17T23:55:07.882Z,98.93
2023-05-17T23:57:35.486Z,98.59
